KCGZ/CGZ METAR and TAF weather

Enter ICAO airport designator
Station Type Date Time Source
KCGZ METAR 2022/06/30 11:56 UTC NOAA

KCGZ 301156Z AUTO 00000KT 10SM CLR 26/18 A3000 RMK AO2 SLP142 6//// 7//// T02610183 10311 20261 $


Station Type Date Time Source
KCGZ Decoded METAR 2022/06/30 11:56 UTC NOAA

Casa Grande, Casa Grande Municipal Airport, AZ, United States (KCGZ) 32-57N 111-46W
Jun 30, 2022 - 07:56 AM EDT / 2022.06.30 1156 UTC
Wind: Calm:0
Visibility: 10 mile(s):0
Sky conditions: clear
Temperature: 79.0 F (26.1 C)
Dew Point: 64.9 F (18.3 C)
Relative Humidity: 62%
Pressure (altimeter): 30 in. Hg (1015 hPa)
ob: KCGZ 301156Z AUTO 00000KT 10SM CLR 26/18 A3000 RMK AO2 SLP142 6//// 7//// T02610183 10311 20261
cycle: 12

Station Type Date Time Source
KCGZ TAF UTC NOAA

Error!

Example: see airport list